sensor_id;sensor_type;location;lat;lon;timestamp;temperature;humidity
41756;DHT22;27435;48.480;9.258;2023-03-01T00:01:05;-2.50;99.00
41756;DHT22;27435;48.480;9.258;2023-03-01T00:03:32;-2.60;99.00
41756;DHT22;27435;48.480;9.258;2023-03-01T00:05:58;-2.60;99.00
41756;DHT22;27435;48.480;9.258;2023-03-01T00:08:24;-2.60;99.00
41756;DHT22;27435;48.480;9.258;2023-03-01T00:11:00;-2.70;99.00
41756;DHT22;27435;48.480;9.258;2023-03-01T00:13:26;-2.70;99.00
41756;DHT22;27435;48.480;9.258;2023-03-01T00:15:52;-2.70;99.00
41756;DHT22;27435;48.480;9.258;2023-03-01T00:18:17;-2.80;99.00
41756;DHT22;27435;48.480;9.258;2023-03-01T00:20:52;-2.80;99.00
41756;DHT22;27435;48.480;9.258;2023-03-01T00:23:18;-2.90;99.00
41756;DHT22;27435;48.480;9.258;2023-03-01T00:25:44;-2.90;99.00
41756;DHT22;27435;48.480;9.258;2023-03-01T00:28:10;-3.00;99.00
41756;DHT22;27435;48.480;9.258;2023-03-01T00:30:36;-3.00;99.00
41756;DHT22;27435;48.480;9.258;2023-03-01T00:33:02;-3.00;99.00
41756;DHT22;27435;48.480;9.258;2023-03-01T00:35:28;-3.10;99.00
41756;DHT22;27435;48.480;9.258;2023-03-01T00:37:53;-2.90;99.00
41756;DHT22;27435;48.480;9.258;2023-03-01T00:40:29;-2.90;99.00
41756;DHT22;27435;48.480;9.258;2023-03-01T00:42:54;-3.00;99.00
41756;DHT22;27435;48.480;9.258;2023-03-01T00:45:20;-3.10;99.00
41756;DHT22;27435;48.480;9.258;2023-03-01T00:47:46;-3.10;99.00
41756;DHT22;27435;48.480;9.258;2023-03-01T00:50:13;-3.10;99.00
41756;DHT22;27435;48.480;9.258;2023-03-01T00:52:39;-3.00;99.00
41756;DHT22;27435;48.480;9.258;2023-03-01T00:55:05;-2.90;99.00
41756;DHT22;27435;48.480;9.258;2023-03-01T00:57:31;-2.90;99.00
41756;DHT22;27435;48.480;9.258;2023-03-01T00:59:57;-3.00;99.00
41756;DHT22;27435;48.480;9.258;2023-03-01T01:02:23;-3.10;99.00
41756;DHT22;27435;48.480;9.258;2023-03-01T01:04:50;-3.10;99.00
41756;DHT22;27435;48.480;9.258;2023-03-01T01:07:17;-3.20;99.00
41756;DHT22;27435;48.480;9.258;2023-03-01T01:09:43;-3.10;99.00
41756;DHT22;27435;48.480;9.258;2023-03-01T01:12:09;-3.10;99.00
41756;DHT22;27435;48.480;9.258;2023-03-01T01:14:34;-3.10;99.00
41756;DHT22;27435;48.480;9.258;2023-03-01T01:17:00;-3.10;99.00
41756;DHT22;27435;48.480;9.258;2023-03-01T01:19:27;-3.00;99.00
41756;DHT22;27435;48.480;9.258;2023-03-01T01:21:53;-3.00;99.00
41756;DHT22;27435;48.480;9.258;2023-03-01T01:24:19;-3.00;99.00
41756;DHT22;27435;48.480;9.258;2023-03-01T01:26:45;-3.00;99.00
41756;DHT22;27435;48.480;9.258;2023-03-01T01:29:11;-3.00;99.00
41756;DHT22;27435;48.480;9.258;2023-03-01T01:31:38;-3.00;99.00
41756;DHT22;27435;48.480;9.258;2023-03-01T01:34:06;-3.00;99.00
41756;DHT22;27435;48.480;9.258;2023-03-01T01:36:33;-3.00;99.00
41756;DHT22;27435;48.480;9.258;2023-03-01T01:38:59;-3.00;99.00
41756;DHT22;27435;48.480;9.258;2023-03-01T01:41:25;-2.90;99.00
41756;DHT22;27435;48.480;9.258;2023-03-01T01:44:25;-2.80;99.00
41756;DHT22;27435;48.480;9.258;2023-03-01T01:46:58;-2.80;99.00
41756;DHT22;27435;48.480;9.258;2023-03-01T01:55:04;-2.40;99.00
41756;DHT22;27435;48.480;9.258;2023-03-01T01:57:49;-2.20;99.00
41756;DHT22;27435;48.480;9.258;2023-03-01T02:00:26;-1.90;99.00
41756;DHT22;27435;48.480;9.258;2023-03-01T02:02:56;-1.80;99.00
41756;DHT22;27435;48.480;9.258;2023-03-01T02:05:34;-1.50;99.00
41756;DHT22;27435;48.480;9.258;2023-03-01T02:08:00;-1.60;99.00
41756;DHT22;27435;48.480;9.258;2023-03-01T02:10:27;-1.40;99.00
41756;DHT22;27435;48.480;9.258;2023-03-01T02:12:54;-1.30;99.00
41756;DHT22;27435;48.480;9.258;2023-03-01T02:15:23;-1.30;99.00
41756;DHT22;27435;48.480;9.258;2023-03-01T02:17:49;-1.40;99.00
41756;DHT22;27435;48.480;9.258;2023-03-01T02:20:40;-1.50;99.00
41756;DHT22;27435;48.480;9.258;2023-03-01T02:23:10;-1.40;99.00
41756;DHT22;27435;48.480;9.258;2023-03-01T02:26:05;-1.50;99.00
41756;DHT22;27435;48.480;9.258;2023-03-01T02:28:35;-1.60;99.00
41756;DHT22;27435;48.480;9.258;2023-03-01T02:31:04;-1.70;99.00
41756;DHT22;27435;48.480;9.258;2023-03-01T02:33:49;-1.50;99.00
41756;DHT22;27435;48.480;9.258;2023-03-01T02:36:18;-1.30;99.00
41756;DHT22;27435;48.480;9.258;2023-03-01T02:38:46;-1.30;99.00
41756;DHT22;27435;48.480;9.258;2023-03-01T02:41:16;-1.20;99.00
41756;DHT22;27435;48.480;9.258;2023-03-01T02:43:42;-1.20;99.00
41756;DHT22;27435;48.480;9.258;2023-03-01T02:46:17;-1.20;99.00
41756;DHT22;27435;48.480;9.258;2023-03-01T02:48:50;-1.00;99.00
41756;DHT22;27435;48.480;9.258;2023-03-01T02:51:27;-1.10;99.00
41756;DHT22;27435;48.480;9.258;2023-03-01T02:54:10;-1.30;99.00
41756;DHT22;27435;48.480;9.258;2023-03-01T02:56:37;-1.20;99.00
41756;DHT22;27435;48.480;9.258;2023-03-01T02:59:03;-1.10;99.00
41756;DHT22;27435;48.480;9.258;2023-03-01T03:01:29;-1.00;99.00
41756;DHT22;27435;48.480;9.258;2023-03-01T03:04:09;-1.10;99.00
41756;DHT22;27435;48.480;9.258;2023-03-01T03:06:35;-1.20;99.00
41756;DHT22;27435;48.480;9.258;2023-03-01T03:09:01;-1.20;99.00
41756;DHT22;27435;48.480;9.258;2023-03-01T03:11:27;-1.00;99.00
41756;DHT22;27435;48.480;9.258;2023-03-01T03:13:53;-0.80;99.00
41756;DHT22;27435;48.480;9.258;2023-03-01T03:16:19;-0.70;99.00
41756;DHT22;27435;48.480;9.258;2023-03-01T03:18:45;-0.70;99.00
41756;DHT22;27435;48.480;9.258;2023-03-01T03:21:12;-0.70;99.00
41756;DHT22;27435;48.480;9.258;2023-03-01T03:23:37;-0.60;99.00
41756;DHT22;27435;48.480;9.258;2023-03-01T03:26:04;-0.80;99.00
41756;DHT22;27435;48.480;9.258;2023-03-01T03:28:31;-0.90;99.00
41756;DHT22;27435;48.480;9.258;2023-03-01T03:30:56;-0.90;99.00
41756;DHT22;27435;48.480;9.258;2023-03-01T03:33:24;-0.90;99.00
41756;DHT22;27435;48.480;9.258;2023-03-01T03:35:50;-0.80;99.00
41756;DHT22;27435;48.480;9.258;2023-03-01T03:38:17;-0.80;99.00
41756;DHT22;27435;48.480;9.258;2023-03-01T03:40:46;-0.80;99.00
41756;DHT22;27435;48.480;9.258;2023-03-01T03:43:21;-0.80;99.00
41756;DHT22;27435;48.480;9.258;2023-03-01T03:45:48;-0.70;99.00
41756;DHT22;27435;48.480;9.258;2023-03-01T03:48:15;-0.80;99.00
41756;DHT22;27435;48.480;9.258;2023-03-01T03:50:41;-0.70;99.00
41756;DHT22;27435;48.480;9.258;2023-03-01T03:53:10;-0.70;99.00
41756;DHT22;27435;48.480;9.258;2023-03-01T03:55:36;-0.90;99.00
41756;DHT22;27435;48.480;9.258;2023-03-01T03:58:05;-0.90;99.00
41756;DHT22;27435;48.480;9.258;2023-03-01T04:00:42;-1.00;99.00
41756;DHT22;27435;48.480;9.258;2023-03-01T04:03:09;-1.10;99.00
41756;DHT22;27435;48.480;9.258;2023-03-01T04:05:36;-1.10;99.00
41756;DHT22;27435;48.480;9.258;2023-03-01T04:08:05;-1.00;99.00
41756;DHT22;27435;48.480;9.258;2023-03-01T04:10:48;-1.10;99.00
41756;DHT22;27435;48.480;9.258;2023-03-01T04:13:19;-1.10;99.00
41756;DHT22;27435;48.480;9.258;2023-03-01T04:15:49;-1.10;99.00
41756;DHT22;27435;48.480;9.258;2023-03-01T04:18:17;-1.20;99.00
41756;DHT22;27435;48.480;9.258;2023-03-01T04:20:44;-1.20;99.00
41756;DHT22;27435;48.480;9.258;2023-03-01T04:23:20;-1.20;99.00
41756;DHT22;27435;48.480;9.258;2023-03-01T04:25:57;-1.20;99.00
41756;DHT22;27435;48.480;9.258;2023-03-01T04:28:37;-1.10;99.00
41756;DHT22;27435;48.480;9.258;2023-03-01T04:31:07;-1.00;99.00
41756;DHT22;27435;48.480;9.258;2023-03-01T04:34:01;-0.80;99.00
41756;DHT22;27435;48.480;9.258;2023-03-01T04:36:29;-0.60;99.00
41756;DHT22;27435;48.480;9.258;2023-03-01T04:38:56;-0.60;99.00
41756;DHT22;27435;48.480;9.258;2023-03-01T04:41:23;-0.60;99.00
41756;DHT22;27435;48.480;9.258;2023-03-01T04:43:49;-0.50;99.00
41756;DHT22;27435;48.480;9.258;2023-03-01T04:46:18;-0.40;99.00
41756;DHT22;27435;48.480;9.258;2023-03-01T04:48:57;-0.30;99.00
41756;DHT22;27435;48.480;9.258;2023-03-01T04:51:26;-0.40;99.00
41756;DHT22;27435;48.480;9.258;2023-03-01T04:53:51;-0.50;99.00
41756;DHT22;27435;48.480;9.258;2023-03-01T04:56:17;-0.30;99.00
41756;DHT22;27435;48.480;9.258;2023-03-01T04:58:48;-0.30;99.00
41756;DHT22;27435;48.480;9.258;2023-03-01T05:01:19;-0.30;99.00
41756;DHT22;27435;48.480;9.258;2023-03-01T05:03:47;-0.30;99.00
41756;DHT22;27435;48.480;9.258;2023-03-01T05:06:14;-0.20;99.00
41756;DHT22;27435;48.480;9.258;2023-03-01T05:08:41;-0.30;99.00
41756;DHT22;27435;48.480;9.258;2023-03-01T05:11:07;-0.30;99.00
41756;DHT22;27435;48.480;9.258;2023-03-01T05:13:39;-0.30;99.00
41756;DHT22;27435;48.480;9.258;2023-03-01T05:16:06;-0.20;99.00
41756;DHT22;27435;48.480;9.258;2023-03-01T05:18:33;-0.20;99.00
41756;DHT22;27435;48.480;9.258;2023-03-01T05:21:07;-0.20;99.00
41756;DHT22;27435;48.480;9.258;2023-03-01T05:23:34;-0.30;99.00
41756;DHT22;27435;48.480;9.258;2023-03-01T05:26:01;-0.50;99.00
41756;DHT22;27435;48.480;9.258;2023-03-01T05:28:29;-0.40;99.00
41756;DHT22;27435;48.480;9.258;2023-03-01T05:30:55;-0.50;99.00
41756;DHT22;27435;48.480;9.258;2023-03-01T05:33:21;-0.70;99.00
41756;DHT22;27435;48.480;9.258;2023-03-01T05:35:48;-0.60;99.00
41756;DHT22;27435;48.480;9.258;2023-03-01T05:38:15;-0.60;99.00
41756;DHT22;27435;48.480;9.258;2023-03-01T05:40:46;-0.70;99.00
41756;DHT22;27435;48.480;9.258;2023-03-01T05:43:14;-0.80;99.00
41756;DHT22;27435;48.480;9.258;2023-03-01T05:45:41;-0.60;99.00
41756;DHT22;27435;48.480;9.258;2023-03-01T05:48:07;-0.80;99.00
41756;DHT22;27435;48.480;9.258;2023-03-01T05:50:36;-0.90;99.00
41756;DHT22;27435;48.480;9.258;2023-03-01T05:53:03;-0.90;99.00
41756;DHT22;27435;48.480;9.258;2023-03-01T05:55:31;-0.90;99.00
41756;DHT22;27435;48.480;9.258;2023-03-01T05:58:01;-0.90;99.00
41756;DHT22;27435;48.480;9.258;2023-03-01T06:00:28;-1.00;99.00
41756;DHT22;27435;48.480;9.258;2023-03-01T06:02:55;-1.00;99.00
41756;DHT22;27435;48.480;9.258;2023-03-01T06:05:21;-1.00;99.00
41756;DHT22;27435;48.480;9.258;2023-03-01T06:07:47;-0.80;99.00
41756;DHT22;27435;48.480;9.258;2023-03-01T06:10:14;-0.70;99.00
41756;DHT22;27435;48.480;9.258;2023-03-01T06:12:41;-0.80;99.00
41756;DHT22;27435;48.480;9.258;2023-03-01T06:15:09;-0.80;99.00
41756;DHT22;27435;48.480;9.258;2023-03-01T06:17:36;-0.60;99.00
41756;DHT22;27435;48.480;9.258;2023-03-01T06:20:15;-0.60;99.00
41756;DHT22;27435;48.480;9.258;2023-03-01T06:22:41;-0.60;99.00
41756;DHT22;27435;48.480;9.258;2023-03-01T06:25:08;-0.70;99.00
41756;DHT22;27435;48.480;9.258;2023-03-01T06:27:34;-0.90;99.00
41756;DHT22;27435;48.480;9.258;2023-03-01T06:30:00;-1.00;99.00
41756;DHT22;27435;48.480;9.258;2023-03-01T06:32:26;-1.00;99.00
41756;DHT22;27435;48.480;9.258;2023-03-01T06:34:52;-0.90;99.00
41756;DHT22;27435;48.480;9.258;2023-03-01T06:37:18;-0.90;99.00
41756;DHT22;27435;48.480;9.258;2023-03-01T06:39:43;-0.90;99.00
41756;DHT22;27435;48.480;9.258;2023-03-01T06:42:09;-0.80;99.00
41756;DHT22;27435;48.480;9.258;2023-03-01T06:44:35;-0.80;99.00
41756;DHT22;27435;48.480;9.258;2023-03-01T06:47:01;-1.00;99.00
41756;DHT22;27435;48.480;9.258;2023-03-01T06:49:27;-1.00;99.00
41756;DHT22;27435;48.480;9.258;2023-03-01T06:51:52;-1.10;99.00
41756;DHT22;27435;48.480;9.258;2023-03-01T06:54:18;-1.10;99.00
41756;DHT22;27435;48.480;9.258;2023-03-01T06:56:46;-1.10;99.00
41756;DHT22;27435;48.480;9.258;2023-03-01T06:59:13;-1.10;99.00
41756;DHT22;27435;48.480;9.258;2023-03-01T07:01:38;-1.10;99.00
41756;DHT22;27435;48.480;9.258;2023-03-01T07:04:05;-1.10;99.00
41756;DHT22;27435;48.480;9.258;2023-03-01T07:06:31;-1.20;99.00
41756;DHT22;27435;48.480;9.258;2023-03-01T07:08:57;-1.20;99.00
41756;DHT22;27435;48.480;9.258;2023-03-01T07:11:22;-1.10;99.00
41756;DHT22;27435;48.480;9.258;2023-03-01T07:13:48;-1.00;99.00
41756;DHT22;27435;48.480;9.258;2023-03-01T07:16:14;-1.00;99.00
41756;DHT22;27435;48.480;9.258;2023-03-01T07:18:40;-1.00;99.00
41756;DHT22;27435;48.480;9.258;2023-03-01T07:21:07;-1.00;99.00
41756;DHT22;27435;48.480;9.258;2023-03-01T07:23:33;-1.00;99.00
41756;DHT22;27435;48.480;9.258;2023-03-01T07:25:59;-0.90;99.00
41756;DHT22;27435;48.480;9.258;2023-03-01T07:28:25;-0.90;99.00
41756;DHT22;27435;48.480;9.258;2023-03-01T07:30:51;-0.90;99.00
41756;DHT22;27435;48.480;9.258;2023-03-01T07:33:17;-0.90;99.00
41756;DHT22;27435;48.480;9.258;2023-03-01T07:35:43;-0.90;99.00
41756;DHT22;27435;48.480;9.258;2023-03-01T07:38:08;-0.90;99.00
41756;DHT22;27435;48.480;9.258;2023-03-01T07:40:35;-0.90;99.00
41756;DHT22;27435;48.480;9.258;2023-03-01T07:43:01;-0.90;99.00
41756;DHT22;27435;48.480;9.258;2023-03-01T07:45:27;-0.80;99.00
41756;DHT22;27435;48.480;9.258;2023-03-01T07:47:54;-0.80;99.00
41756;DHT22;27435;48.480;9.258;2023-03-01T07:50:21;-0.80;99.00
41756;DHT22;27435;48.480;9.258;2023-03-01T07:52:48;-0.80;99.00
41756;DHT22;27435;48.480;9.258;2023-03-01T07:55:15;-0.70;99.00
41756;DHT22;27435;48.480;9.258;2023-03-01T07:57:40;-0.60;99.00
41756;DHT22;27435;48.480;9.258;2023-03-01T08:00:07;-0.70;99.00
41756;DHT22;27435;48.480;9.258;2023-03-01T08:02:33;-0.60;99.00
41756;DHT22;27435;48.480;9.258;2023-03-01T08:04:59;-0.50;99.00
41756;DHT22;27435;48.480;9.258;2023-03-01T08:07:24;-0.50;99.00
41756;DHT22;27435;48.480;9.258;2023-03-01T08:09:50;-0.50;99.00
41756;DHT22;27435;48.480;9.258;2023-03-01T08:12:16;-0.40;99.00
41756;DHT22;27435;48.480;9.258;2023-03-01T08:14:42;-0.30;99.00
41756;DHT22;27435;48.480;9.258;2023-03-01T08:17:08;-0.30;99.00
41756;DHT22;27435;48.480;9.258;2023-03-01T08:19:34;-0.20;99.00
41756;DHT22;27435;48.480;9.258;2023-03-01T08:22:02;-0.10;99.00
41756;DHT22;27435;48.480;9.258;2023-03-01T08:24:28;0.00;99.00
41756;DHT22;27435;48.480;9.258;2023-03-01T08:26:54;0.00;99.00
41756;DHT22;27435;48.480;9.258;2023-03-01T08:29:20;0.10;99.00
41756;DHT22;27435;48.480;9.258;2023-03-01T08:31:46;0.20;99.00
41756;DHT22;27435;48.480;9.258;2023-03-01T08:34:15;0.10;99.00
41756;DHT22;27435;48.480;9.258;2023-03-01T08:36:43;0.30;99.00
41756;DHT22;27435;48.480;9.258;2023-03-01T08:39:10;0.40;99.00
41756;DHT22;27435;48.480;9.258;2023-03-01T08:41:36;0.50;98.80
41756;DHT22;27435;48.480;9.258;2023-03-01T08:44:03;0.60;97.30
41756;DHT22;27435;48.480;9.258;2023-03-01T08:46:32;0.60;97.50
41756;DHT22;27435;48.480;9.258;2023-03-01T08:48:58;0.70;98.00
41756;DHT22;27435;48.480;9.258;2023-03-01T08:51:24;1.00;96.80
41756;DHT22;27435;48.480;9.258;2023-03-01T08:53:50;1.10;95.80
41756;DHT22;27435;48.480;9.258;2023-03-01T08:56:18;1.20;94.60
41756;DHT22;27435;48.480;9.258;2023-03-01T08:58:45;1.30;94.40
41756;DHT22;27435;48.480;9.258;2023-03-01T09:01:13;1.30;93.70
41756;DHT22;27435;48.480;9.258;2023-03-01T09:03:39;1.40;92.90
41756;DHT22;27435;48.480;9.258;2023-03-01T09:06:06;1.50;92.30
41756;DHT22;27435;48.480;9.258;2023-03-01T09:08:38;1.50;92.50
41756;DHT22;27435;48.480;9.258;2023-03-01T09:11:06;1.50;92.40
41756;DHT22;27435;48.480;9.258;2023-03-01T09:13:32;1.60;92.60
41756;DHT22;27435;48.480;9.258;2023-03-01T09:15:59;1.70;91.30
41756;DHT22;27435;48.480;9.258;2023-03-01T09:18:25;1.80;91.10
41756;DHT22;27435;48.480;9.258;2023-03-01T09:20:51;1.80;91.10
41756;DHT22;27435;48.480;9.258;2023-03-01T09:23:17;1.80;91.60
41756;DHT22;27435;48.480;9.258;2023-03-01T09:25:42;2.00;89.50
41756;DHT22;27435;48.480;9.258;2023-03-01T09:28:08;2.30;88.80
41756;DHT22;27435;48.480;9.258;2023-03-01T09:30:33;2.20;87.70
41756;DHT22;27435;48.480;9.258;2023-03-01T09:32:59;2.30;87.60
41756;DHT22;27435;48.480;9.258;2023-03-01T09:35:25;2.50;87.40
41756;DHT22;27435;48.480;9.258;2023-03-01T09:37:51;2.70;85.40
41756;DHT22;27435;48.480;9.258;2023-03-01T09:40:23;2.70;85.30
41756;DHT22;27435;48.480;9.258;2023-03-01T09:43:30;2.60;85.00
41756;DHT22;27435;48.480;9.258;2023-03-01T09:45:56;2.60;85.40
41756;DHT22;27435;48.480;9.258;2023-03-01T09:48:27;2.70;85.30
41756;DHT22;27435;48.480;9.258;2023-03-01T09:50:54;2.80;85.30
41756;DHT22;27435;48.480;9.258;2023-03-01T09:53:27;2.90;85.20
41756;DHT22;27435;48.480;9.258;2023-03-01T09:56:09;3.20;84.20
41756;DHT22;27435;48.480;9.258;2023-03-01T10:04:28;2.90;85.10
41756;DHT22;27435;48.480;9.258;2023-03-01T10:07:02;3.10;83.50
41756;DHT22;27435;48.480;9.258;2023-03-01T10:09:40;3.00;83.90
41756;DHT22;27435;48.480;9.258;2023-03-01T10:12:16;3.00;84.40
41756;DHT22;27435;48.480;9.258;2023-03-01T10:15:01;3.20;83.50
41756;DHT22;27435;48.480;9.258;2023-03-01T10:17:39;3.00;83.80
41756;DHT22;27435;48.480;9.258;2023-03-01T10:22:44;3.30;83.60
41756;DHT22;27435;48.480;9.258;2023-03-01T10:28:02;3.80;82.30
41756;DHT22;27435;48.480;9.258;2023-03-01T10:30:38;3.60;82.40
41756;DHT22;27435;48.480;9.258;2023-03-01T10:33:17;3.60;81.80
41756;DHT22;27435;48.480;9.258;2023-03-01T10:35:44;3.80;82.70
41756;DHT22;27435;48.480;9.258;2023-03-01T10:38:11;3.80;81.20
41756;DHT22;27435;48.480;9.258;2023-03-01T10:43:24;3.80;82.20
41756;DHT22;27435;48.480;9.258;2023-03-01T10:45:51;4.00;81.70
41756;DHT22;27435;48.480;9.258;2023-03-01T10:50:45;4.20;80.00
41756;DHT22;27435;48.480;9.258;2023-03-01T10:53:38;4.00;80.10
41756;DHT22;27435;48.480;9.258;2023-03-01T10:58:33;4.40;80.60
41756;DHT22;27435;48.480;9.258;2023-03-01T11:03:37;4.50;79.70
41756;DHT22;27435;48.480;9.258;2023-03-01T11:08:46;4.30;79.70
41756;DHT22;27435;48.480;9.258;2023-03-01T11:14:06;4.30;80.40
41756;DHT22;27435;48.480;9.258;2023-03-01T11:16:37;4.60;79.80
41756;DHT22;27435;48.480;9.258;2023-03-01T11:24:47;4.90;78.80
41756;DHT22;27435;48.480;9.258;2023-03-01T11:27:31;5.10;77.70
41756;DHT22;27435;48.480;9.258;2023-03-01T11:36:15;5.40;77.50
41756;DHT22;27435;48.480;9.258;2023-03-01T11:38:35;5.30;77.50
41756;DHT22;27435;48.480;9.258;2023-03-01T11:41:07;5.40;78.20
41756;DHT22;27435;48.480;9.258;2023-03-01T11:46:27;5.60;76.90
41756;DHT22;27435;48.480;9.258;2023-03-01T11:52:00;5.70;77.00
41756;DHT22;27435;48.480;9.258;2023-03-01T12:08:35;6.00;74.60
41756;DHT22;27435;48.480;9.258;2023-03-01T12:14:04;5.90;75.90
41756;DHT22;27435;48.480;9.258;2023-03-01T12:22:31;5.70;75.30
41756;DHT22;27435;48.480;9.258;2023-03-01T12:27:57;6.00;75.20
41756;DHT22;27435;48.480;9.258;2023-03-01T12:36:22;6.40;73.60
41756;DHT22;27435;48.480;9.258;2023-03-01T12:45:14;6.60;73.40
41756;DHT22;27435;48.480;9.258;2023-03-01T12:50:39;6.70;72.70
41756;DHT22;27435;48.480;9.258;2023-03-01T12:53:26;6.60;73.20
41756;DHT22;27435;48.480;9.258;2023-03-01T12:55:56;6.70;73.40
41756;DHT22;27435;48.480;9.258;2023-03-01T13:07:16;7.00;73.10
41756;DHT22;27435;48.480;9.258;2023-03-01T13:12:52;7.00;72.70
41756;DHT22;27435;48.480;9.258;2023-03-01T13:15:31;7.20;71.60
41756;DHT22;27435;48.480;9.258;2023-03-01T13:20:52;7.30;72.10
41756;DHT22;27435;48.480;9.258;2023-03-01T13:26:15;7.60;70.80
41756;DHT22;27435;48.480;9.258;2023-03-01T13:33:47;7.60;70.10
41756;DHT22;27435;48.480;9.258;2023-03-01T13:49:25;7.90;69.60
41756;DHT22;27435;48.480;9.258;2023-03-01T13:51:52;8.10;69.10
41756;DHT22;27435;48.480;9.258;2023-03-01T13:54:31;8.40;68.80
41756;DHT22;27435;48.480;9.258;2023-03-01T13:56:59;8.30;68.50
41756;DHT22;27435;48.480;9.258;2023-03-01T13:59:26;8.20;69.10
41756;DHT22;27435;48.480;9.258;2023-03-01T14:01:57;8.40;69.00
41756;DHT22;27435;48.480;9.258;2023-03-01T14:04:32;8.10;69.10
41756;DHT22;27435;48.480;9.258;2023-03-01T14:07:22;8.50;68.00
41756;DHT22;27435;48.480;9.258;2023-03-01T14:09:55;8.40;67.70
41756;DHT22;27435;48.480;9.258;2023-03-01T14:12:47;8.40;68.00
41756;DHT22;27435;48.480;9.258;2023-03-01T14:15:36;8.30;68.20
41756;DHT22;27435;48.480;9.258;2023-03-01T14:18:26;8.20;68.40
41756;DHT22;27435;48.480;9.258;2023-03-01T14:20:51;8.10;68.70
41756;DHT22;27435;48.480;9.258;2023-03-01T14:23:23;8.30;69.40
41756;DHT22;27435;48.480;9.258;2023-03-01T14:25:54;8.50;68.50
41756;DHT22;27435;48.480;9.258;2023-03-01T14:28:25;8.60;67.70
41756;DHT22;27435;48.480;9.258;2023-03-01T14:30:59;8.40;68.20
41756;DHT22;27435;48.480;9.258;2023-03-01T14:33:31;8.70;68.40
41756;DHT22;27435;48.480;9.258;2023-03-01T14:36:10;8.70;67.70
41756;DHT22;27435;48.480;9.258;2023-03-01T14:41:09;8.70;67.20
41756;DHT22;27435;48.480;9.258;2023-03-01T14:43:36;8.60;68.20
41756;DHT22;27435;48.480;9.258;2023-03-01T14:46:03;8.80;68.20
41756;DHT22;27435;48.480;9.258;2023-03-01T14:48:29;8.70;68.20
41756;DHT22;27435;48.480;9.258;2023-03-01T14:50:55;8.90;67.40
41756;DHT22;27435;48.480;9.258;2023-03-01T14:53:26;8.60;67.40
41756;DHT22;27435;48.480;9.258;2023-03-01T14:55:55;8.50;68.30
41756;DHT22;27435;48.480;9.258;2023-03-01T14:58:23;8.60;68.50
41756;DHT22;27435;48.480;9.258;2023-03-01T15:05:51;8.50;68.10
41756;DHT22;27435;48.480;9.258;2023-03-01T15:08:21;8.40;68.80
41756;DHT22;27435;48.480;9.258;2023-03-01T15:11:00;8.50;68.30
41756;DHT22;27435;48.480;9.258;2023-03-01T15:13:30;8.50;68.20
41756;DHT22;27435;48.480;9.258;2023-03-01T15:16:11;8.70;68.00
41756;DHT22;27435;48.480;9.258;2023-03-01T15:18:42;8.60;68.10
41756;DHT22;27435;48.480;9.258;2023-03-01T15:21:15;8.30;68.80
41756;DHT22;27435;48.480;9.258;2023-03-01T15:23:41;8.40;69.20
41756;DHT22;27435;48.480;9.258;2023-03-01T15:26:31;8.40;69.00
41756;DHT22;27435;48.480;9.258;2023-03-01T15:28:59;8.10;69.40
41756;DHT22;27435;48.480;9.258;2023-03-01T15:31:31;8.00;69.50
41756;DHT22;27435;48.480;9.258;2023-03-01T15:36:43;8.30;69.40
41756;DHT22;27435;48.480;9.258;2023-03-01T15:39:39;8.30;69.30
41756;DHT22;27435;48.480;9.258;2023-03-01T15:45:08;8.40;69.10
41756;DHT22;27435;48.480;9.258;2023-03-01T15:47:36;8.30;69.00
41756;DHT22;27435;48.480;9.258;2023-03-01T15:50:04;8.70;68.80
41756;DHT22;27435;48.480;9.258;2023-03-01T15:52:40;8.90;68.70
41756;DHT22;27435;48.480;9.258;2023-03-01T15:55:19;8.80;68.00
41756;DHT22;27435;48.480;9.258;2023-03-01T15:57:45;8.40;68.40
41756;DHT22;27435;48.480;9.258;2023-03-01T16:00:12;8.40;68.60
41756;DHT22;27435;48.480;9.258;2023-03-01T16:02:40;8.10;69.70
41756;DHT22;27435;48.480;9.258;2023-03-01T16:05:10;7.80;70.10
41756;DHT22;27435;48.480;9.258;2023-03-01T16:07:40;7.70;70.60
41756;DHT22;27435;48.480;9.258;2023-03-01T16:10:05;7.70;70.10
41756;DHT22;27435;48.480;9.258;2023-03-01T16:12:31;7.40;70.70
41756;DHT22;27435;48.480;9.258;2023-03-01T16:14:57;7.30;71.30
41756;DHT22;27435;48.480;9.258;2023-03-01T16:17:23;7.20;71.80
41756;DHT22;27435;48.480;9.258;2023-03-01T16:19:48;7.00;71.90
41756;DHT22;27435;48.480;9.258;2023-03-01T16:22:14;7.20;71.90
41756;DHT22;27435;48.480;9.258;2023-03-01T16:24:39;7.20;71.60
41756;DHT22;27435;48.480;9.258;2023-03-01T16:27:06;7.10;71.80
41756;DHT22;27435;48.480;9.258;2023-03-01T16:29:32;7.00;71.90
41756;DHT22;27435;48.480;9.258;2023-03-01T16:32:00;6.80;72.50
41756;DHT22;27435;48.480;9.258;2023-03-01T16:34:26;6.60;73.00
41756;DHT22;27435;48.480;9.258;2023-03-01T16:36:52;6.70;72.80
41756;DHT22;27435;48.480;9.258;2023-03-01T16:39:17;6.50;73.40
41756;DHT22;27435;48.480;9.258;2023-03-01T16:41:43;6.30;73.60
41756;DHT22;27435;48.480;9.258;2023-03-01T16:44:09;6.20;74.00
41756;DHT22;27435;48.480;9.258;2023-03-01T16:46:35;6.20;74.30
41756;DHT22;27435;48.480;9.258;2023-03-01T16:49:01;6.10;74.50
41756;DHT22;27435;48.480;9.258;2023-03-01T16:51:26;6.00;74.90
41756;DHT22;27435;48.480;9.258;2023-03-01T16:53:52;5.90;74.70
41756;DHT22;27435;48.480;9.258;2023-03-01T16:56:18;5.80;75.30
41756;DHT22;27435;48.480;9.258;2023-03-01T16:58:44;5.70;75.50
41756;DHT22;27435;48.480;9.258;2023-03-01T17:01:16;5.70;75.90
41756;DHT22;27435;48.480;9.258;2023-03-01T17:03:43;5.50;76.10
41756;DHT22;27435;48.480;9.258;2023-03-01T17:06:12;5.50;76.60
41756;DHT22;27435;48.480;9.258;2023-03-01T17:08:38;5.40;76.60
41756;DHT22;27435;48.480;9.258;2023-03-01T17:11:05;5.50;76.60
41756;DHT22;27435;48.480;9.258;2023-03-01T17:13:34;5.40;76.70
41756;DHT22;27435;48.480;9.258;2023-03-01T17:16:02;5.40;76.80
41756;DHT22;27435;48.480;9.258;2023-03-01T17:18:27;5.40;77.00
41756;DHT22;27435;48.480;9.258;2023-03-01T17:20:53;5.10;77.80
41756;DHT22;27435;48.480;9.258;2023-03-01T17:23:19;4.90;78.70
41756;DHT22;27435;48.480;9.258;2023-03-01T17:25:45;4.70;79.20
41756;DHT22;27435;48.480;9.258;2023-03-01T17:28:12;4.60;79.70
41756;DHT22;27435;48.480;9.258;2023-03-01T17:30:41;4.60;80.40
41756;DHT22;27435;48.480;9.258;2023-03-01T17:33:08;4.60;80.20
41756;DHT22;27435;48.480;9.258;2023-03-01T17:35:33;4.40;80.40
41756;DHT22;27435;48.480;9.258;2023-03-01T17:38:01;4.40;80.80
41756;DHT22;27435;48.480;9.258;2023-03-01T17:40:27;4.40;80.80
41756;DHT22;27435;48.480;9.258;2023-03-01T17:42:53;4.60;81.20
41756;DHT22;27435;48.480;9.258;2023-03-01T17:45:18;4.50;81.20
41756;DHT22;27435;48.480;9.258;2023-03-01T17:47:44;4.60;81.40
41756;DHT22;27435;48.480;9.258;2023-03-01T17:50:10;4.70;81.70
41756;DHT22;27435;48.480;9.258;2023-03-01T17:52:37;4.60;81.80
41756;DHT22;27435;48.480;9.258;2023-03-01T17:55:04;4.40;82.30
41756;DHT22;27435;48.480;9.258;2023-03-01T17:57:30;4.60;82.70
41756;DHT22;27435;48.480;9.258;2023-03-01T17:59:55;4.50;82.70
41756;DHT22;27435;48.480;9.258;2023-03-01T18:02:21;4.40;83.40
41756;DHT22;27435;48.480;9.258;2023-03-01T18:04:46;4.30;84.20
41756;DHT22;27435;48.480;9.258;2023-03-01T18:07:12;4.40;84.20
41756;DHT22;27435;48.480;9.258;2023-03-01T18:09:38;4.40;85.10